Time;durP1;ratioP1;P1;durP2;ratioP2;P2;SDS_P1;SDS_P2;PMS_P1;PMS_P2;Temp;Humidity;BMP_temperature;BMP_pressure;BME280_temperature;BME280_humidity;BME280_pressure;Samples;Min_cycle;Max_cycle;Signal;HPM_P1;HPM_P2
2021/04/29 00:00:16;;;;;;;41.70;30.00;;;;;;;7.51;44.74;99546.20;128318;1101;22344;-77
2021/04/29 00:03:05;;;;;;;37.85;29.20;;;;;;;7.47;45.02;99548.35;128190;1102;22343;-77
2021/04/29 00:05:35;;;;;;;38.38;29.10;;;;;;;7.47;45.28;99550.16;128320;1098;24557;-77
2021/04/29 00:08:05;;;;;;;41.85;30.20;;;;;;;7.44;45.14;99547.87;128105;1098;22331;-75
2021/04/29 00:10:34;;;;;;;39.00;28.90;;;;;;;7.42;45.15;99547.20;128394;1098;22337;-76
2021/04/29 00:13:03;;;;;;;45.90;29.23;;;;;;;7.39;45.17;99550.98;128663;1098;22330;-76
2021/04/29 00:15:32;;;;;;;42.70;29.50;;;;;;;7.38;45.59;99545.90;128629;1098;22365;-77
2021/04/29 00:18:01;;;;;;;39.93;29.73;;;;;;;7.35;45.30;99544.42;128363;1099;22324;-77
2021/04/29 00:20:30;;;;;;;44.60;30.00;;;;;;;7.31;45.71;99538.68;128642;1098;22324;-77
2021/04/29 00:23:00;;;;;;;42.43;27.88;;;;;;;7.29;45.51;99547.70;128670;1098;22324;-76
2021/04/29 00:25:29;;;;;;;42.00;30.10;;;;;;;7.28;45.47;99538.19;128666;1097;22353;-77
2021/04/29 00:27:57;;;;;;;42.98;30.65;;;;;;;7.27;45.71;99536.56;128638;1098;22342;-76
2021/04/29 00:30:27;;;;;;;43.45;30.38;;;;;;;7.23;45.83;99536.08;128650;1095;22360;-77
2021/04/29 00:32:56;;;;;;;43.35;30.08;;;;;;;7.20;45.68;99533.78;128373;1098;22339;-77
2021/04/29 00:35:25;;;;;;;45.58;28.65;;;;;;;7.18;45.85;99532.30;128388;1098;22396;-77
2021/04/29 00:37:53;;;;;;;42.33;30.40;;;;;;;7.15;45.85;99528.19;128493;1098;23382;-77
2021/04/29 00:40:22;;;;;;;39.35;28.85;;;;;;;7.13;46.18;99526.70;128359;1098;22330;-77
2021/04/29 00:42:51;;;;;;;42.98;30.10;;;;;;;7.13;46.02;99545.09;128632;1098;22368;-76
2021/04/29 00:45:20;;;;;;;38.10;27.18;;;;;;;7.12;46.03;99535.58;128341;1098;22331;-77
2021/04/29 00:47:51;;;;;;;43.98;27.18;;;;;;;7.10;46.10;99529.66;128117;1101;22370;-77
2021/04/29 00:50:24;;;;;;;40.93;26.83;;;;;;;7.09;46.11;99539.34;128357;1098;22326;-77
2021/04/29 00:52:53;;;;;;;45.43;28.08;;;;;;;7.08;46.20;99533.28;128362;1098;22354;-78
2021/04/29 00:55:21;;;;;;;34.65;25.60;;;;;;;7.05;46.14;99533.61;128406;1098;22349;-77
2021/04/29 00:57:51;;;;;;;40.18;27.03;;;;;;;7.03;46.17;99540.00;128297;1096;22339;-77
2021/04/29 01:00:22;;;;;;;38.15;26.78;;;;;;;6.98;46.26;99532.63;128277;1098;24860;-77
2021/04/29 01:03:29;;;;;;;37.80;27.23;;;;;;;6.95;46.35;99529.52;128083;1101;22411;-77
2021/04/29 01:06:16;;;;;;;38.15;26.98;;;;;;;6.93;46.80;99534.10;128140;1098;22348;-77
2021/04/29 01:09:07;;;;;;;44.35;28.00;;;;;;;6.91;46.55;99528.21;128341;1096;24556;-77
2021/04/29 01:11:39;;;;;;;39.75;26.78;;;;;;;6.89;46.62;99517.04;128372;1098;22343;-77
2021/04/29 01:14:10;;;;;;;;;;;;;;;6.81;46.75;99523.12;128359;1100;22468;-77
2021/04/29 01:16:40;;;;;;;37.90;27.55;;;;;;;6.74;46.86;99520.33;128338;1101;21266;-77
2021/04/29 01:19:13;;;;;;;42.75;27.95;;;;;;;6.75;46.88;99518.52;128274;1096;22334;-77
2021/04/29 01:21:44;;;;;;;40.98;25.25;;;;;;;6.75;46.97;99513.27;128366;1098;22342;-76
2021/04/29 01:24:25;;;;;;;37.15;26.28;;;;;;;6.74;46.77;99514.27;128129;1101;22346;-76
2021/04/29 01:27:02;;;;;;;41.95;25.63;;;;;;;6.70;47.01;99500.64;128295;1101;22527;-76
2021/04/29 01:29:32;;;;;;;35.50;26.33;;;;;;;6.70;47.05;99500.64;128054;1101;22359;-77
2021/04/29 01:32:01;;;;;;;33.18;25.90;;;;;;;6.71;47.06;99509.34;128191;1102;22331;-77
2021/04/29 01:34:37;;;;;;;35.90;27.20;;;;;;;6.71;47.06;99506.71;128234;1098;22333;-78
2021/04/29 01:37:08;;;;;;;38.18;27.13;;;;;;;6.69;46.99;99501.61;128384;1097;22408;-76
2021/04/29 01:39:37;;;;;;;42.95;27.43;;;;;;;6.70;47.13;99500.64;128311;1098;22393;-77
2021/04/29 01:42:07;;;;;;;38.15;27.78;;;;;;;6.68;47.01;99497.35;128414;1095;22365;-76
2021/04/29 01:44:38;;;;;;;41.05;28.33;;;;;;;6.64;47.13;99495.23;128652;1098;22332;-76
2021/04/29 01:47:07;;;;;;;36.60;26.30;;;;;;;6.63;47.11;99485.69;128596;1095;22470;-77
2021/04/29 01:49:36;;;;;;;39.18;25.43;;;;;;;6.60;46.96;99495.55;128680;1094;22310;-77
2021/04/29 01:52:09;;;;;;;29.15;22.68;;;;;;;6.57;47.26;99490.63;128666;1098;22421;-77
2021/04/29 01:54:38;;;;;;;36.53;24.73;;;;;;;6.54;47.22;99492.77;128679;1095;24579;-77
2021/04/29 01:57:07;;;;;;;43.43;24.77;;;;;;;6.50;47.21;99475.70;128614;1094;24223;-77
2021/04/29 01:59:35;;;;;;;29.98;23.38;;;;;;;6.48;47.28;99475.85;128632;1098;22352;-77
2021/04/29 02:02:04;;;;;;;32.60;21.95;;;;;;;6.47;47.48;99481.28;128617;1094;22338;-77
2021/04/29 02:04:34;;;;;;;30.93;23.00;;;;;;;6.47;47.34;99476.84;128645;1098;22317;-78
2021/04/29 02:07:03;;;;;;;30.93;22.10;;;;;;;6.47;47.55;99465.53;128677;1098;22336;-77
2021/04/29 02:09:32;;;;;;;27.47;21.10;;;;;;;6.46;47.22;99469.94;128616;1095;22321;-77
2021/04/29 02:12:03;;;;;;;29.35;20.52;;;;;;;6.45;47.27;99459.62;128629;1098;23183;-76
2021/04/29 02:14:46;;;;;;;34.50;20.52;;;;;;;6.44;47.22;99460.61;128450;1096;22334;-77
2021/04/29 02:18:03;;;;;;;24.78;20.33;;;;;;;6.44;47.21;99465.86;128649;1098;22306;-77
2021/04/29 02:20:36;;;;;;;30.13;19.90;;;;;;;6.43;47.10;99458.95;127975;1103;22362;-78
2021/04/29 02:23:18;;;;;;;31.60;20.95;;;;;;;6.48;46.45;99459.30;127952;1104;22388;-78
2021/04/29 02:25:48;;;;;;;;;;;;;;;6.47;47.12;99455.86;127571;1104;24199;-77
2021/04/29 02:28:18;;;;;;;22.18;17.10;;;;;;;6.49;47.01;99466.17;127592;1105;23099;-77
2021/04/29 02:30:49;;;;;;;25.45;16.15;;;;;;;6.55;46.61;99455.03;127542;1108;22398;-76
2021/04/29 02:33:18;;;;;;;23.40;16.83;;;;;;;6.63;47.14;99454.20;127667;1103;23312;-77
2021/04/29 02:35:49;;;;;;;27.50;18.08;;;;;;;6.69;46.71;99458.80;127703;1103;24508;-77
2021/04/29 02:38:18;;;;;;;22.23;16.55;;;;;;;6.72;46.33;99454.03;127701;1104;22366;-78
2021/04/29 02:40:48;;;;;;;20.43;14.93;;;;;;;6.76;45.86;99449.28;127572;1105;22387;-77
2021/04/29 02:43:17;;;;;;;21.75;15.83;;;;;;;6.81;45.95;99449.61;127612;1104;22449;-76
2021/04/29 02:45:46;;;;;;;23.93;16.43;;;;;;;6.84;45.88;99450.10;127995;1104;22824;-77
2021/04/29 02:48:19;;;;;;;26.45;16.53;;;;;;;6.91;46.05;99446.82;127633;1107;22390;-77
2021/04/29 02:50:48;;;;;;;24.98;17.33;;;;;;;6.96;45.84;99444.50;127622;1104;25147;-77
2021/04/29 02:53:20;;;;;;;26.15;17.00;;;;;;;6.99;45.52;99450.23;127657;1104;22478;-77
2021/04/29 02:55:50;;;;;;;26.28;16.73;;;;;;;7.03;45.46;99446.31;128044;1104;22395;-77
2021/04/29 02:58:19;;;;;;;22.25;16.63;;;;;;;7.06;45.16;99455.64;128060;1096;24278;-76
2021/04/29 03:00:48;;;;;;;22.45;16.78;;;;;;;7.08;45.13;99456.30;128276;1097;24236;-77
2021/04/29 03:03:17;;;;;;;28.08;17.03;;;;;;;7.05;45.05;99457.45;128341;1098;22362;-76
2021/04/29 03:05:45;;;;;;;27.03;17.88;;;;;;;7.02;45.12;99449.91;128657;1098;22957;-76
2021/04/29 03:08:14;;;;;;;22.78;16.00;;;;;;;7.03;44.94;99462.06;128626;1098;22345;-76
2021/04/29 03:10:43;;;;;;;24.48;17.03;;;;;;;7.04;44.94;99449.75;128595;1098;22348;-76
2021/04/29 03:13:12;;;;;;;25.98;17.75;;;;;;;7.06;44.87;99451.23;128671;1098;23107;-76
2021/04/29 03:15:40;;;;;;;27.90;16.75;;;;;;;7.10;44.91;99445.62;128332;1099;23274;-77
2021/04/29 03:18:09;;;;;;;33.73;17.75;;;;;;;7.10;44.84;99450.88;128306;1098;24550;-77
2021/04/29 03:20:42;;;;;;;30.93;18.97;;;;;;;7.11;44.88;99449.91;128294;1097;22332;-77
2021/04/29 03:23:11;;;;;;;27.60;18.08;;;;;;;7.11;44.99;99447.28;128367;1098;22345;-76
2021/04/29 03:25:40;;;;;;;36.73;20.05;;;;;;;7.09;44.81;99447.43;128279;1101;22342;-76
2021/04/29 03:28:08;;;;;;;32.15;19.10;;;;;;;7.10;44.92;99443.84;128330;1096;22347;-76
2021/04/29 03:30:37;;;;;;;33.45;18.53;;;;;;;7.09;44.75;99444.80;128232;1101;22348;-76
2021/04/29 03:33:06;;;;;;;30.93;17.75;;;;;;;7.11;44.92;99452.53;128338;1096;22330;-76
2021/04/29 03:35:35;;;;;;;29.55;17.63;;;;;;;7.12;44.95;99441.84;128607;1098;22301;-76
2021/04/29 03:38:05;;;;;;;22.63;16.95;;;;;;;7.11;45.08;99440.21;128669;1098;22337;-77
2021/04/29 03:40:35;;;;;;;25.60;18.13;;;;;;;7.13;45.13;99443.51;128612;1094;24493;-76
2021/04/29 03:43:05;;;;;;;23.33;16.10;;;;;;;7.15;45.35;99431.00;128308;1095;24450;-76
2021/04/29 03:45:34;;;;;;;26.40;15.80;;;;;;;7.16;45.04;99434.45;128271;1097;22468;-75
2021/04/29 03:48:04;;;;;;;20.73;16.43;;;;;;;7.15;45.12;99435.45;128237;1101;22462;-77
2021/04/29 03:50:33;;;;;;;25.85;17.73;;;;;;;7.14;44.92;99426.75;128293;1098;25828;-76
2021/04/29 03:53:01;;;;;;;20.85;14.53;;;;;;;7.16;45.30;99429.20;128288;1101;22367;-76
2021/04/29 03:55:30;;;;;;;27.95;15.48;;;;;;;7.18;45.10;99432.48;128309;1101;22765;-76
2021/04/29 03:57:59;;;;;;;25.93;15.97;;;;;;;7.18;45.51;99425.42;128308;1098;22349;-77
2021/04/29 04:00:27;;;;;;;25.23;15.90;;;;;;;7.18;45.38;99432.48;128136;1101;22374;-76
2021/04/29 04:02:56;;;;;;;23.50;13.98;;;;;;;7.19;45.72;99439.37;128107;1098;22332;-76
2021/04/29 04:05:25;;;;;;;19.70;14.28;;;;;;;7.19;45.34;99434.11;128359;1098;22600;-76
2021/04/29 04:07:54;;;;;;;20.05;13.28;;;;;;;7.22;45.07;99439.84;128320;1098;22359;-76
2021/04/29 04:10:23;;;;;;;21.28;14.83;;;;;;;7.30;45.46;99439.03;128340;1098;22322;-76
2021/04/29 04:12:51;;;;;;;23.08;13.98;;;;;;;7.34;45.46;99440.32;128369;1098;22358;-76
2021/04/29 04:15:20;;;;;;;20.88;14.90;;;;;;;7.45;45.41;99439.94;128638;1098;22348;-76
2021/04/29 04:17:49;;;;;;;21.00;14.98;;;;;;;7.58;45.49;99443.84;128649;1095;24453;-78
2021/04/29 04:20:22;;;;;;;20.93;14.33;;;;;;;7.63;45.24;99439.73;128597;1098;22339;-78
2021/04/29 04:22:51;;;;;;;21.13;14.95;;;;;;;7.70;45.38;99438.05;128655;1094;24480;-76
2021/04/29 04:25:19;;;;;;;26.30;16.35;;;;;;;7.75;45.12;99446.22;128602;1095;24451;-76
2021/04/29 04:27:48;;;;;;;21.43;16.28;;;;;;;7.81;45.09;99443.91;128649;1095;24460;-74
2021/04/29 04:30:17;;;;;;;23.83;15.28;;;;;;;7.88;44.91;99445.67;128761;1095;22341;-76
2021/04/29 04:32:46;;;;;;;19.50;15.45;;;;;;;7.97;45.00;99443.83;128648;1098;23621;-76
2021/04/29 04:35:15;;;;;;;22.55;14.95;;;;;;;8.12;45.42;99438.63;128659;1098;22321;-76
2021/04/29 04:37:45;;;;;;;21.40;14.08;;;;;;;8.27;45.08;99433.45;128654;1095;24233;-76
2021/04/29 04:40:14;;;;;;;20.80;15.03;;;;;;;8.38;44.78;99428.62;128602;1098;22314;-76
2021/04/29 04:42:43;;;;;;;21.40;15.18;;;;;;;8.52;45.00;99426.21;128596;1098;22347;-77
2021/04/29 04:45:12;;;;;;;23.08;16.75;;;;;;;8.65;45.07;99427.24;128628;1098;22433;-76
2021/04/29 04:47:41;;;;;;;22.85;17.18;;;;;;;8.81;44.92;99425.47;128656;1098;22319;-77
2021/04/29 04:50:11;;;;;;;26.78;18.25;;;;;;;8.95;44.64;99420.22;128612;1098;22323;-77
2021/04/29 04:52:40;;;;;;;23.83;17.20;;;;;;;9.07;44.47;99425.06;128619;1095;22335;-77
2021/04/29 04:55:09;;;;;;;25.98;18.25;;;;;;;9.21;44.27;99416.34;128641;1095;25182;-77
2021/04/29 04:57:38;;;;;;;22.33;16.63;;;;;;;9.32;44.30;99413.23;128636;1094;22395;-76
2021/04/29 05:00:08;;;;;;;29.18;20.28;;;;;;;9.45;44.18;99420.50;128662;1094;24460;-79
2021/04/29 05:02:40;;;;;;;27.98;18.63;;;;;;;9.54;44.03;99423.87;128745;1095;25176;-79
2021/04/29 05:05:09;;;;;;;25.55;18.83;;;;;;;9.60;43.98;99417.87;128697;1098;22330;-78
2021/04/29 05:07:38;;;;;;;33.05;23.90;;;;;;;9.62;44.37;99416.66;128682;1095;22335;-77
2021/04/29 05:10:07;;;;;;;29.08;19.88;;;;;;;9.66;44.02;99411.83;128638;1098;22333;-76
2021/04/29 05:12:38;;;;;;;22.80;17.65;;;;;;;9.70;44.32;99414.94;128623;1098;22330;-77
2021/04/29 05:15:07;;;;;;;25.83;19.48;;;;;;;9.74;44.53;99406.47;128672;1095;24975;-78
2021/04/29 05:17:36;;;;;;;21.55;16.03;;;;;;;9.81;44.69;99396.80;128585;1098;22446;-76
2021/04/29 05:20:06;;;;;;;24.20;19.33;;;;;;;9.94;44.93;99405.88;128642;1098;22318;-78
2021/04/29 05:22:34;;;;;;;23.58;17.48;;;;;;;10.05;45.29;99398.27;128357;1101;22334;-77
2021/04/29 05:25:04;;;;;;;21.58;14.88;;;;;;;10.17;45.47;99395.16;128271;1100;22354;-78
2021/04/29 05:27:34;;;;;;;20.05;15.28;;;;;;;10.25;45.64;99387.09;128286;1101;22353;-77
2021/04/29 05:30:04;;;;;;;21.25;15.15;;;;;;;10.36;46.29;99392.73;128253;1101;22349;-77
2021/04/29 05:32:33;;;;;;;24.13;14.50;;;;;;;10.57;47.04;99380.50;128324;1098;25246;-77
2021/04/29 05:35:04;;;;;;;21.93;14.53;;;;;;;10.85;47.16;99391.05;128304;1101;22342;-77
2021/04/29 05:37:33;;;;;;;19.20;14.30;;;;;;;11.20;47.42;99386.61;128262;1101;22737;-77
2021/04/29 05:40:05;;;;;;;19.20;15.43;;;;;;;11.59;47.35;99385.14;128313;1098;22808;-77
2021/04/29 05:42:34;;;;;;;19.00;13.68;;;;;;;11.95;46.87;99376.13;128618;1094;22331;-77
2021/04/29 05:45:05;;;;;;;22.10;15.05;;;;;;;12.29;46.70;99380.45;128736;1097;22330;-77
2021/04/29 05:47:34;;;;;;;19.48;15.18;;;;;;;12.59;46.31;99375.56;128656;1095;24551;-78
2021/04/29 05:50:04;;;;;;;19.63;15.77;;;;;;;12.88;45.79;99379.62;128657;1098;22430;-78
2021/04/29 05:52:33;;;;;;;19.33;15.60;;;;;;;13.13;45.90;99386.93;128607;1098;22649;-77
2021/04/29 05:55:03;;;;;;;28.13;15.88;;;;;;;13.38;45.82;99379.13;128602;1098;22342;-77
2021/04/29 05:57:31;;;;;;;21.05;14.90;;;;;;;13.65;45.87;99375.33;128628;1095;22387;-77
2021/04/29 06:00:00;;;;;;;21.08;14.35;;;;;;;14.03;46.02;99374.53;128606;1098;23101;-76
2021/04/29 06:02:29;;;;;;;19.85;14.10;;;;;;;14.43;45.43;99386.69;128593;1097;22357;-77
2021/04/29 06:05:01;;;;;;;24.78;16.45;;;;;;;14.73;44.86;99376.28;128249;1101;22338;-78
2021/04/29 06:07:29;;;;;;;20.45;14.48;;;;;;;15.09;44.87;99375.48;128211;1098;24605;-77
2021/04/29 06:09:58;;;;;;;20.13;16.08;;;;;;;15.44;44.72;99375.72;128207;1098;22349;-77
2021/04/29 06:12:27;;;;;;;20.95;15.70;;;;;;;15.76;43.87;99370.21;128241;1101;22436;-75
2021/04/29 06:14:56;;;;;;;19.63;15.15;;;;;;;15.98;43.74;99367.88;128250;1098;22328;-75
2021/04/29 06:17:24;;;;;;;21.90;16.98;;;;;;;16.19;43.09;99375.36;128215;1098;22375;-76
2021/04/29 06:19:53;;;;;;;19.78;15.35;;;;;;;16.43;43.06;99357.55;128249;1101;22351;-77
2021/04/29 06:22:25;;;;;;;19.50;15.48;;;;;;;16.67;42.67;99357.57;128243;1098;22351;-76
2021/04/29 06:24:53;;;;;;;24.55;14.95;;;;;;;16.83;42.34;99362.24;128647;1098;22333;-77
2021/04/29 06:27:22;;;;;;;22.43;14.73;;;;;;;16.87;42.08;99354.58;128582;1098;22341;-77
2021/04/29 06:29:51;;;;;;;21.30;14.85;;;;;;;17.12;42.70;99344.44;128630;1095;23840;-76
2021/04/29 06:32:19;;;;;;;18.87;14.77;;;;;;;17.32;42.22;99361.92;128618;1098;22367;-76
2021/04/29 06:34:48;;;;;;;26.30;17.05;;;;;;;17.66;42.23;99357.55;128254;1098;24470;-72
2021/04/29 06:37:17;;;;;;;21.43;14.23;;;;;;;17.83;41.30;99353.09;128206;1101;22338;-73
2021/04/29 06:39:46;;;;;;;21.08;17.10;;;;;;;17.99;41.57;99353.34;128233;1101;22436;-74
2021/04/29 06:42:15;;;;;;;24.75;17.45;;;;;;;18.10;41.13;99345.27;128221;1101;22425;-73
2021/04/29 06:44:44;;;;;;;26.28;17.08;;;;;;;18.16;41.16;99340.83;127984;1101;22355;-73
2021/04/29 06:47:17;;;;;;;20.38;17.13;;;;;;;18.25;41.28;99336.69;127939;1101;22423;-73
2021/04/29 06:49:45;;;;;;;26.08;15.65;;;;;;;18.43;41.37;99334.84;127952;1102;23066;-74
2021/04/29 06:52:18;;;;;;;18.93;14.35;;;;;;;18.47;40.88;99328.75;127968;1098;22340;-75
2021/04/29 06:54:48;;;;;;;36.48;30.13;;;;;;;18.62;40.73;99338.05;128224;1101;23261;-75
2021/04/29 06:57:16;;;;;;;23.02;16.20;;;;;;;18.75;40.67;99333.19;128239;1101;22775;-79
2021/04/29 06:59:45;;;;;;;29.83;15.73;;;;;;;18.85;40.57;99326.38;128276;1101;22361;-77
2021/04/29 07:02:14;;;;;;;26.68;16.10;;;;;;;18.76;39.99;99336.67;128313;1098;22334;-77
2021/04/29 07:04:57;;;;;;;26.18;13.83;;;;;;;18.67;40.42;99322.89;128793;1098;22326;-78
2021/04/29 07:07:27;;;;;;;20.08;15.75;;;;;;;18.68;40.58;99327.18;128691;1098;22339;-77
2021/04/29 07:09:56;;;;;;;30.58;19.98;;;;;;;18.70;40.41;99327.76;128586;1095;24469;-77
2021/04/29 07:12:25;;;;;;;50.20;35.00;;;;;;;18.86;40.86;99327.98;128698;1098;22336;-77
2021/04/29 07:14:53;;;;;;;37.90;16.28;;;;;;;19.01;40.17;99322.84;128640;1098;22321;-77
2021/04/29 07:17:22;;;;;;;20.60;13.85;;;;;;;19.02;39.92;99322.58;128651;1098;22728;-77
2021/04/29 07:19:51;;;;;;;17.63;13.48;;;;;;;19.14;40.58;99319.80;128592;1098;22345;-75
2021/04/29 07:22:20;;;;;;;17.95;11.58;;;;;;;19.28;40.00;99315.68;128646;1097;22286;-77
2021/04/29 07:24:48;;;;;;;14.85;9.78;;;;;;;19.38;39.52;99306.16;128643;1098;22360;-78
2021/04/29 07:27:17;;;;;;;16.70;11.60;;;;;;;19.46;39.69;99316.41;128606;1098;23034;-77
2021/04/29 07:29:46;;;;;;;21.00;11.10;;;;;;;19.54;39.34;99315.17;128625;1098;22358;-75
2021/04/29 07:32:14;;;;;;;18.23;10.13;;;;;;;19.43;39.09;99298.99;128592;1098;22344;-75
2021/04/29 07:34:43;;;;;;;17.77;10.70;;;;;;;19.39;39.70;99305.08;128514;1095;24984;-74
2021/04/29 07:37:12;;;;;;;17.68;11.28;;;;;;;19.26;39.62;99296.39;128558;1095;22342;-75
2021/04/29 07:39:41;;;;;;;18.80;11.13;;;;;;;19.26;39.88;99299.08;128536;1095;24456;-75
2021/04/29 07:42:10;;;;;;;15.90;11.95;;;;;;;19.41;39.75;99297.63;128539;1094;25002;-74
2021/04/29 07:44:39;;;;;;;18.98;12.28;;;;;;;19.37;39.60;99285.80;128539;1094;22327;-74
2021/04/29 07:47:08;;;;;;;27.75;10.95;;;;;;;19.33;39.86;99282.02;128609;1095;22430;-74
2021/04/29 07:49:38;;;;;;;21.88;10.80;;;;;;;19.37;39.56;99285.80;128595;1098;22321;-75
2021/04/29 07:52:06;;;;;;;13.03;10.68;;;;;;;19.53;40.34;99284.91;128596;1098;22330;-74
2021/04/29 07:54:35;;;;;;;20.45;13.50;;;;;;;19.79;39.93;99290.52;128562;1095;22343;-74
2021/04/29 07:57:05;;;;;;;20.50;13.38;;;;;;;19.85;39.34;99289.51;128268;1098;22346;-74
2021/04/29 07:59:35;;;;;;;25.53;12.28;;;;;;;19.93;39.14;99291.74;128185;1101;22339;-75
2021/04/29 08:02:04;;;;;;;16.50;11.40;;;;;;;20.01;39.22;99295.81;128184;1101;22330;-74
2021/04/29 08:04:33;;;;;;;16.90;11.63;;;;;;;20.09;38.84;99289.97;128174;1101;22506;-75
2021/04/29 08:07:02;;;;;;;24.35;12.70;;;;;;;20.18;39.27;99291.13;128205;1101;22342;-74
2021/04/29 08:09:31;;;;;;;20.33;12.38;;;;;;;20.33;38.58;99282.41;128537;1098;22326;-74
2021/04/29 08:12:00;;;;;;;16.60;11.57;;;;;;;20.38;38.29;99280.55;128187;1101;22910;-75
2021/04/29 08:14:30;;;;;;;15.50;12.50;;;;;;;20.47;38.30;99277.39;128253;1099;22363;-75
2021/04/29 08:16:58;;;;;;;19.08;13.70;;;;;;;20.28;38.48;99272.42;128255;1097;24386;-75
2021/04/29 08:19:28;;;;;;;23.10;17.68;;;;;;;20.32;38.77;99275.40;128196;1101;22326;-75
2021/04/29 08:21:57;;;;;;;30.80;15.97;;;;;;;20.41;38.68;99269.30;128332;1098;22327;-75
2021/04/29 08:24:25;;;;;;;22.80;13.25;;;;;;;20.52;38.38;99264.83;128567;1095;24205;-76
2021/04/29 08:26:54;;;;;;;19.05;14.23;;;;;;;20.75;38.02;99273.55;128549;1095;22953;-75
2021/04/29 08:29:23;;;;;;;20.83;13.05;;;;;;;20.83;38.01;99256.96;128543;1098;22708;-74
2021/04/29 08:31:52;;;;;;;16.25;13.80;;;;;;;20.89;38.23;99263.94;128171;1098;22346;-75
2021/04/29 08:34:20;;;;;;;18.28;12.88;;;;;;;20.88;37.81;99256.97;128178;1100;22367;-76
2021/04/29 08:36:50;;;;;;;21.68;13.40;;;;;;;20.94;37.63;99263.17;128231;1101;22447;-75
2021/04/29 08:39:18;;;;;;;17.20;12.05;;;;;;;20.86;37.32;99254.56;128182;1099;24495;-74
2021/04/29 08:41:47;;;;;;;22.23;14.30;;;;;;;20.80;37.91;99258.28;128062;1099;24587;-74
2021/04/29 08:44:16;;;;;;;36.43;15.33;;;;;;;20.88;37.69;99256.97;128216;1101;22594;-74
2021/04/29 08:46:45;;;;;;;23.20;14.10;;;;;;;20.88;37.50;99257.77;128202;1099;22361;-74
2021/04/29 08:49:16;;;;;;;22.90;13.75;;;;;;;20.83;37.85;99259.64;127952;1100;22410;-74
2021/04/29 08:51:45;;;;;;;15.78;13.03;;;;;;;20.77;37.79;99264.17;128356;1098;22748;-74
2021/04/29 08:54:14;;;;;;;23.28;14.30;;;;;;;20.82;37.94;99258.01;128569;1098;22348;-74
2021/04/29 08:56:43;;;;;;;15.50;13.28;;;;;;;20.95;38.05;99262.09;128587;1098;22397;-74
2021/04/29 08:59:12;;;;;;;19.68;13.53;;;;;;;21.07;37.31;99250.06;128222;1100;23122;-75
2021/04/29 09:01:45;;;;;;;17.65;14.00;;;;;;;20.97;37.27;99251.91;128196;1100;22353;-75
2021/04/29 09:04:17;;;;;;;17.40;13.58;;;;;;;20.81;37.48;99245.66;128208;1100;22358;-74
2021/04/29 09:06:47;;;;;;;21.98;15.10;;;;;;;20.78;37.75;99243.50;128226;1099;24276;-76
2021/04/29 09:09:18;;;;;;;19.00;14.13;;;;;;;20.62;38.06;99245.30;128181;1101;22341;-75
2021/04/29 09:11:49;;;;;;;20.37;14.80;;;;;;;20.31;38.11;99246.98;127957;1101;22334;-74
2021/04/29 09:14:42;;;;;;;21.33;16.10;;;;;;;19.97;38.39;99247.27;128179;1101;22358;-75
2021/04/29 09:17:23;;;;;;;466.35;96.28;;;;;;;19.80;39.33;99247.41;128000;1098;24476;-75
2021/04/29 09:19:52;;;;;;;22.83;16.95;;;;;;;19.64;39.43;99249.13;128272;1098;22343;-73
2021/04/29 09:22:23;;;;;;;21.73;16.13;;;;;;;19.44;39.65;99248.91;128306;1095;22342;-74
2021/04/29 09:24:52;;;;;;;22.50;16.30;;;;;;;19.24;39.87;99257.54;128545;1098;22329;-75
2021/04/29 09:27:29;;;;;;;22.43;17.33;;;;;;;19.01;40.60;99253.26;128662;1094;22437;-73
2021/04/29 09:30:01;;;;;;;21.00;15.65;;;;;;;18.86;40.66;99253.89;128569;1098;22330;-73
2021/04/29 09:32:33;;;;;;;32.95;18.15;;;;;;;18.69;41.13;99237.84;128646;1098;22617;-74
2021/04/29 09:35:06;;;;;;;26.53;16.80;;;;;;;18.57;41.52;99239.84;128655;1097;23185;-74
2021/04/29 09:37:38;;;;;;;19.48;15.40;;;;;;;18.47;41.54;99235.16;128627;1098;22333;-74
2021/04/29 09:40:36;;;;;;;26.25;17.63;;;;;;;18.40;41.98;99237.20;128621;1098;22334;-75
2021/04/29 09:43:09;;;;;;;17.45;15.65;;;;;;;18.35;42.60;99221.08;128170;1101;22374;-75
2021/04/29 09:45:39;;;;;;;21.85;17.28;;;;;;;18.43;42.89;99227.89;128186;1101;22807;-75
2021/04/29 09:48:12;;;;;;;34.08;17.55;;;;;;;18.61;42.28;99224.91;128323;1100;22353;-73
2021/04/29 09:50:46;;;;;;;21.05;15.35;;;;;;;18.93;42.92;99221.59;128306;1101;22450;-74
2021/04/29 09:53:19;;;;;;;20.57;15.87;;;;;;;19.14;42.14;99226.11;128227;1098;22361;-73
2021/04/29 09:55:49;;;;;;;23.85;17.35;;;;;;;19.10;41.60;99241.06;128325;1101;23046;-74
2021/04/29 09:58:26;;;;;;;27.10;21.40;;;;;;;19.07;41.64;99243.43;128197;1101;22361;-75
2021/04/29 10:00:56;;;;;;;30.55;26.13;;;;;;;19.16;42.16;99248.09;128257;1098;22364;-75
2021/04/29 10:03:24;;;;;;;23.10;18.10;;;;;;;19.34;41.89;99254.97;128193;1101;22358;-74
2021/04/29 10:05:54;;;;;;;22.80;17.15;;;;;;;19.43;41.54;99245.42;128248;1101;22826;-74
2021/04/29 10:08:26;;;;;;;23.28;16.63;;;;;;;19.42;41.72;99246.47;128191;1101;22616;-75
2021/04/29 10:10:57;;;;;;;25.53;17.27;;;;;;;19.53;41.70;99250.08;128237;1098;22336;-73
2021/04/29 10:13:32;;;;;;;26.53;20.43;;;;;;;19.44;41.12;99251.59;128160;1098;24507;-74
2021/04/29 10:16:00;;;;;;;25.45;18.50;;;;;;;19.42;41.32;99241.11;128000;1104;22366;-74
2021/04/29 10:18:30;;;;;;;21.33;16.68;;;;;;;19.28;41.29;99242.58;127965;1101;22375;-74
2021/04/29 10:21:00;;;;;;;24.65;17.50;;;;;;;19.07;41.78;99249.59;128147;1101;22357;-74
2021/04/29 10:23:30;;;;;;;22.70;18.75;;;;;;;18.95;41.87;99240.87;128282;1101;22339;-74
2021/04/29 10:26:00;;;;;;;24.58;18.15;;;;;;;18.76;42.10;99233.17;128262;1098;24192;-74
2021/04/29 10:28:41;;;;;;;22.27;17.60;;;;;;;18.74;42.42;99248.65;128234;1101;22355;-75
2021/04/29 10:31:21;;;;;;;37.35;25.40;;;;;;;18.87;42.56;99244.80;128229;1101;23886;-74
2021/04/29 10:33:56;;;;;;;29.78;21.38;;;;;;;18.98;42.35;99243.85;128313;1098;22361;-74
2021/04/29 10:36:40;;;;;;;23.35;18.15;;;;;;;19.13;42.15;99245.91;128652;1098;22351;-74
2021/04/29 10:39:27;;;;;;;448.23;86.20;;;;;;;19.12;41.90;99246.95;128590;1098;22329;-74
2021/04/29 10:42:08;;;;;;;35.65;25.60;;;;;;;19.01;42.19;99246.03;128593;1098;23310;-75
2021/04/29 10:44:46;;;;;;;22.18;17.95;;;;;;;19.00;42.08;99243.63;128588;1098;22694;-74
2021/04/29 10:47:30;;;;;;;23.88;16.95;;;;;;;18.97;41.99;99241.44;128689;1095;24466;-75
2021/04/29 10:50:15;;;;;;;21.40;16.85;;;;;;;18.93;42.18;99241.13;128692;1095;22430;-74
2021/04/29 10:52:59;;;;;;;23.38;18.85;;;;;;;18.89;42.46;99233.83;128706;1095;22329;-74
2021/04/29 10:55:37;;;;;;;22.70;17.03;;;;;;;18.88;42.87;99234.91;128665;1096;22343;-74
2021/04/29 10:58:08;;;;;;;24.08;18.88;;;;;;;19.00;42.51;99231.05;128590;1097;22790;-74
2021/04/29 11:00:59;;;;;;;25.53;18.97;;;;;;;19.18;42.74;99226.41;128612;1097;22382;-74
2021/04/29 11:03:35;;;;;;;24.65;18.13;;;;;;;19.23;42.34;99221.92;128678;1095;22348;-74
2021/04/29 11:06:24;;;;;;;22.63;16.15;;;;;;;19.24;42.55;99210.15;128617;1097;22434;-77
2021/04/29 11:08:56;;;;;;;24.98;17.88;;;;;;;19.50;42.27;99216.56;128742;1095;22327;-79
2021/04/29 11:11:36;;;;;;;28.20;19.13;;;;;;;19.74;41.92;99210.91;128675;1097;22342;-77
2021/04/29 11:14:12;;;;;;;21.48;17.03;;;;;;;19.87;41.16;99223.07;128656;1096;22329;-77
2021/04/29 11:16:53;;;;;;;407.33;68.58;;;;;;;19.78;41.24;99213.88;128650;1098;22384;-77
2021/04/29 11:20:08;;;;;;;;;;;;;;;19.70;41.03;99205.25;128677;1098;22319;-78
2021/04/29 11:22:37;;;;;;;29.63;17.30;;;;;;;19.79;41.67;99205.57;128292;1098;23785;-79
2021/04/29 11:25:11;;;;;;;28.50;16.10;;;;;;;19.98;40.77;99205.99;128230;1098;22351;-78
2021/04/29 11:27:42;;;;;;;33.85;16.15;;;;;;;20.10;40.93;99201.27;128310;1101;22340;-77
2021/04/29 11:30:14;;;;;;;28.15;17.40;;;;;;;20.11;39.89;99205.55;128061;1101;22367;-77
2021/04/29 11:32:56;;;;;;;27.03;17.65;;;;;;;20.10;40.13;99203.94;128178;1098;24279;-78